sensor_id;sensor_type;location;lat;lon;timestamp;P1;durP1;ratioP1;P2;durP2;ratioP2
15104;SDS011;7653;48.994;9.212;2023-06-14T00:01:24;4.83;;;3.60;;
15104;SDS011;7653;48.994;9.212;2023-06-14T00:03:50;3.57;;;3.23;;
15104;SDS011;7653;48.994;9.212;2023-06-14T00:06:15;4.77;;;3.60;;
15104;SDS011;7653;48.994;9.212;2023-06-14T00:08:42;4.53;;;3.30;;
15104;SDS011;7653;48.994;9.212;2023-06-14T00:11:07;4.07;;;3.37;;
15104;SDS011;7653;48.994;9.212;2023-06-14T00:13:33;4.17;;;3.50;;
15104;SDS011;7653;48.994;9.212;2023-06-14T00:15:59;4.30;;;3.27;;
15104;SDS011;7653;48.994;9.212;2023-06-14T00:18:25;4.50;;;3.40;;
15104;SDS011;7653;48.994;9.212;2023-06-14T00:20:51;4.47;;;4.00;;
15104;SDS011;7653;48.994;9.212;2023-06-14T00:23:17;3.77;;;3.43;;
15104;SDS011;7653;48.994;9.212;2023-06-14T00:25:43;5.50;;;3.53;;
15104;SDS011;7653;48.994;9.212;2023-06-14T00:28:09;5.13;;;4.00;;
15104;SDS011;7653;48.994;9.212;2023-06-14T00:30:35;5.23;;;4.00;;
15104;SDS011;7653;48.994;9.212;2023-06-14T00:33:00;4.50;;;3.77;;
15104;SDS011;7653;48.994;9.212;2023-06-14T00:35:26;5.00;;;3.60;;
15104;SDS011;7653;48.994;9.212;2023-06-14T00:37:52;5.67;;;3.50;;
15104;SDS011;7653;48.994;9.212;2023-06-14T00:40:19;4.77;;;3.90;;
15104;SDS011;7653;48.994;9.212;2023-06-14T00:42:45;5.13;;;3.87;;
15104;SDS011;7653;48.994;9.212;2023-06-14T00:45:11;5.20;;;4.10;;
15104;SDS011;7653;48.994;9.212;2023-06-14T00:47:37;5.17;;;4.23;;
15104;SDS011;7653;48.994;9.212;2023-06-14T00:50:06;4.63;;;4.13;;
15104;SDS011;7653;48.994;9.212;2023-06-14T00:52:32;6.03;;;3.90;;
15104;SDS011;7653;48.994;9.212;2023-06-14T00:54:59;4.17;;;3.73;;
15104;SDS011;7653;48.994;9.212;2023-06-14T00:57:25;5.77;;;3.93;;
15104;SDS011;7653;48.994;9.212;2023-06-14T00:59:52;3.43;;;3.13;;
15104;SDS011;7653;48.994;9.212;2023-06-14T01:02:19;5.73;;;3.97;;
15104;SDS011;7653;48.994;9.212;2023-06-14T01:04:46;5.67;;;3.83;;
15104;SDS011;7653;48.994;9.212;2023-06-14T01:15:38;4.20;;;3.80;;
15104;SDS011;7653;48.994;9.212;2023-06-14T01:18:06;6.07;;;4.20;;
15104;SDS011;7653;48.994;9.212;2023-06-14T01:20:32;4.20;;;3.80;;
15104;SDS011;7653;48.994;9.212;2023-06-14T01:23:02;4.70;;;4.17;;
15104;SDS011;7653;48.994;9.212;2023-06-14T01:25:28;5.40;;;4.10;;
15104;SDS011;7653;48.994;9.212;2023-06-14T01:27:58;5.33;;;4.30;;
15104;SDS011;7653;48.994;9.212;2023-06-14T01:30:27;4.63;;;4.23;;
15104;SDS011;7653;48.994;9.212;2023-06-14T01:32:54;6.30;;;3.90;;
15104;SDS011;7653;48.994;9.212;2023-06-14T01:35:22;5.67;;;4.13;;
15104;SDS011;7653;48.994;9.212;2023-06-14T01:37:48;4.90;;;3.80;;
15104;SDS011;7653;48.994;9.212;2023-06-14T01:40:14;5.30;;;4.40;;
15104;SDS011;7653;48.994;9.212;2023-06-14T01:42:41;5.50;;;4.53;;
15104;SDS011;7653;48.994;9.212;2023-06-14T01:45:07;5.47;;;4.40;;
15104;SDS011;7653;48.994;9.212;2023-06-14T01:47:35;6.50;;;4.60;;
15104;SDS011;7653;48.994;9.212;2023-06-14T01:50:02;4.67;;;4.17;;
15104;SDS011;7653;48.994;9.212;2023-06-14T01:52:28;5.63;;;4.50;;
15104;SDS011;7653;48.994;9.212;2023-06-14T01:54:54;4.27;;;3.87;;
15104;SDS011;7653;48.994;9.212;2023-06-14T01:57:20;6.60;;;4.20;;
15104;SDS011;7653;48.994;9.212;2023-06-14T01:59:47;5.03;;;4.20;;
15104;SDS011;7653;48.994;9.212;2023-06-14T02:02:13;6.00;;;4.00;;
15104;SDS011;7653;48.994;9.212;2023-06-14T02:04:40;5.73;;;4.37;;
15104;SDS011;7653;48.994;9.212;2023-06-14T02:07:06;6.50;;;4.20;;
15104;SDS011;7653;48.994;9.212;2023-06-14T02:09:33;5.20;;;4.60;;
15104;SDS011;7653;48.994;9.212;2023-06-14T02:11:59;5.27;;;4.77;;
15104;SDS011;7653;48.994;9.212;2023-06-14T02:14:25;6.90;;;4.50;;
15104;SDS011;7653;48.994;9.212;2023-06-14T02:16:52;5.90;;;4.37;;
15104;SDS011;7653;48.994;9.212;2023-06-14T02:19:18;6.00;;;4.47;;
15104;SDS011;7653;48.994;9.212;2023-06-14T02:21:45;5.00;;;4.50;;
15104;SDS011;7653;48.994;9.212;2023-06-14T02:24:12;6.07;;;4.50;;
15104;SDS011;7653;48.994;9.212;2023-06-14T02:26:38;5.37;;;4.60;;
15104;SDS011;7653;48.994;9.212;2023-06-14T02:29:04;6.00;;;4.50;;
15104;SDS011;7653;48.994;9.212;2023-06-14T02:31:37;4.83;;;4.40;;
15104;SDS011;7653;48.994;9.212;2023-06-14T02:34:03;5.53;;;4.63;;
15104;SDS011;7653;48.994;9.212;2023-06-14T02:36:29;4.13;;;3.77;;
15104;SDS011;7653;48.994;9.212;2023-06-14T02:38:55;5.80;;;5.00;;
15104;SDS011;7653;48.994;9.212;2023-06-14T02:41:22;5.90;;;4.60;;
15104;SDS011;7653;48.994;9.212;2023-06-14T02:43:49;6.27;;;4.90;;
15104;SDS011;7653;48.994;9.212;2023-06-14T02:46:15;5.43;;;4.43;;
15104;SDS011;7653;48.994;9.212;2023-06-14T02:48:40;7.57;;;4.80;;
15104;SDS011;7653;48.994;9.212;2023-06-14T02:51:06;6.20;;;5.10;;
15104;SDS011;7653;48.994;9.212;2023-06-14T02:53:33;6.93;;;5.17;;
15104;SDS011;7653;48.994;9.212;2023-06-14T02:55:59;5.40;;;4.10;;
15104;SDS011;7653;48.994;9.212;2023-06-14T02:58:26;5.20;;;4.63;;
15104;SDS011;7653;48.994;9.212;2023-06-14T03:00:51;5.57;;;4.47;;
15104;SDS011;7653;48.994;9.212;2023-06-14T03:03:20;5.63;;;4.50;;
15104;SDS011;7653;48.994;9.212;2023-06-14T03:05:47;4.80;;;4.30;;
15104;SDS011;7653;48.994;9.212;2023-06-14T03:08:14;6.43;;;4.80;;
15104;SDS011;7653;48.994;9.212;2023-06-14T03:10:48;5.27;;;4.63;;
15104;SDS011;7653;48.994;9.212;2023-06-14T03:13:15;5.30;;;4.80;;
15104;SDS011;7653;48.994;9.212;2023-06-14T03:15:44;6.57;;;4.83;;
15104;SDS011;7653;48.994;9.212;2023-06-14T03:18:10;4.60;;;4.20;;
15104;SDS011;7653;48.994;9.212;2023-06-14T03:20:37;6.13;;;4.27;;
15104;SDS011;7653;48.994;9.212;2023-06-14T03:23:02;5.20;;;4.43;;
15104;SDS011;7653;48.994;9.212;2023-06-14T03:25:29;7.20;;;5.10;;
15104;SDS011;7653;48.994;9.212;2023-06-14T03:27:55;7.00;;;4.37;;
15104;SDS011;7653;48.994;9.212;2023-06-14T03:30:21;6.93;;;5.00;;
15104;SDS011;7653;48.994;9.212;2023-06-14T03:32:47;7.30;;;4.87;;
15104;SDS011;7653;48.994;9.212;2023-06-14T03:35:13;9.90;;;5.20;;
15104;SDS011;7653;48.994;9.212;2023-06-14T03:37:45;6.43;;;4.93;;
15104;SDS011;7653;48.994;9.212;2023-06-14T03:40:11;7.47;;;4.60;;
15104;SDS011;7653;48.994;9.212;2023-06-14T03:42:38;8.77;;;4.83;;
15104;SDS011;7653;48.994;9.212;2023-06-14T03:45:04;7.87;;;5.33;;
15104;SDS011;7653;48.994;9.212;2023-06-14T03:47:31;7.73;;;5.07;;
15104;SDS011;7653;48.994;9.212;2023-06-14T03:49:57;7.13;;;5.53;;
15104;SDS011;7653;48.994;9.212;2023-06-14T03:52:22;7.60;;;4.47;;
15104;SDS011;7653;48.994;9.212;2023-06-14T03:54:48;6.43;;;5.30;;
15104;SDS011;7653;48.994;9.212;2023-06-14T03:57:14;6.87;;;4.83;;
15104;SDS011;7653;48.994;9.212;2023-06-14T03:59:40;8.00;;;5.43;;
15104;SDS011;7653;48.994;9.212;2023-06-14T04:02:06;5.50;;;5.00;;
15104;SDS011;7653;48.994;9.212;2023-06-14T04:04:32;9.53;;;5.30;;
15104;SDS011;7653;48.994;9.212;2023-06-14T04:07:00;7.00;;;5.57;;
15104;SDS011;7653;48.994;9.212;2023-06-14T04:09:28;5.87;;;5.27;;
15104;SDS011;7653;48.994;9.212;2023-06-14T04:11:56;9.30;;;5.50;;
15104;SDS011;7653;48.994;9.212;2023-06-14T04:14:22;6.33;;;5.07;;
15104;SDS011;7653;48.994;9.212;2023-06-14T04:16:48;7.30;;;5.20;;
15104;SDS011;7653;48.994;9.212;2023-06-14T04:19:14;5.17;;;4.57;;
15104;SDS011;7653;48.994;9.212;2023-06-14T04:21:40;5.60;;;5.10;;
15104;SDS011;7653;48.994;9.212;2023-06-14T04:24:07;7.27;;;4.80;;
15104;SDS011;7653;48.994;9.212;2023-06-14T04:26:42;8.13;;;5.07;;
15104;SDS011;7653;48.994;9.212;2023-06-14T04:29:12;6.57;;;5.13;;
15104;SDS011;7653;48.994;9.212;2023-06-14T04:31:42;7.57;;;5.47;;
15104;SDS011;7653;48.994;9.212;2023-06-14T04:34:09;5.43;;;4.83;;
15104;SDS011;7653;48.994;9.212;2023-06-14T04:36:41;5.60;;;4.90;;
15104;SDS011;7653;48.994;9.212;2023-06-14T04:39:16;5.23;;;4.77;;
15104;SDS011;7653;48.994;9.212;2023-06-14T04:41:46;6.50;;;4.80;;
15104;SDS011;7653;48.994;9.212;2023-06-14T04:44:12;8.63;;;5.27;;
15104;SDS011;7653;48.994;9.212;2023-06-14T04:46:39;8.83;;;5.40;;
15104;SDS011;7653;48.994;9.212;2023-06-14T04:49:16;7.73;;;4.90;;
15104;SDS011;7653;48.994;9.212;2023-06-14T04:51:43;7.40;;;5.33;;
15104;SDS011;7653;48.994;9.212;2023-06-14T04:54:09;5.87;;;5.20;;
15104;SDS011;7653;48.994;9.212;2023-06-14T04:56:41;6.73;;;4.97;;
15104;SDS011;7653;48.994;9.212;2023-06-14T04:59:07;4.97;;;4.23;;
15104;SDS011;7653;48.994;9.212;2023-06-14T05:01:34;6.57;;;4.93;;
15104;SDS011;7653;48.994;9.212;2023-06-14T05:04:00;8.80;;;5.50;;
15104;SDS011;7653;48.994;9.212;2023-06-14T05:06:26;6.53;;;5.27;;
15104;SDS011;7653;48.994;9.212;2023-06-14T05:08:52;9.60;;;5.10;;
15104;SDS011;7653;48.994;9.212;2023-06-14T05:11:18;7.40;;;5.17;;
15104;SDS011;7653;48.994;9.212;2023-06-14T05:13:44;7.23;;;5.03;;
15104;SDS011;7653;48.994;9.212;2023-06-14T05:16:10;6.27;;;5.10;;
15104;SDS011;7653;48.994;9.212;2023-06-14T05:18:36;8.67;;;5.20;;
15104;SDS011;7653;48.994;9.212;2023-06-14T05:21:03;7.07;;;5.10;;
15104;SDS011;7653;48.994;9.212;2023-06-14T05:23:31;8.47;;;5.20;;
15104;SDS011;7653;48.994;9.212;2023-06-14T05:25:57;7.27;;;4.93;;
15104;SDS011;7653;48.994;9.212;2023-06-14T05:28:22;8.87;;;5.17;;
15104;SDS011;7653;48.994;9.212;2023-06-14T05:30:48;8.93;;;5.10;;
15104;SDS011;7653;48.994;9.212;2023-06-14T05:33:14;8.17;;;5.07;;
15104;SDS011;7653;48.994;9.212;2023-06-14T05:35:40;7.73;;;4.83;;
15104;SDS011;7653;48.994;9.212;2023-06-14T05:38:06;7.10;;;5.07;;
15104;SDS011;7653;48.994;9.212;2023-06-14T05:40:32;9.33;;;5.13;;
15104;SDS011;7653;48.994;9.212;2023-06-14T05:42:58;7.80;;;5.03;;
15104;SDS011;7653;48.994;9.212;2023-06-14T05:45:24;8.20;;;4.50;;
15104;SDS011;7653;48.994;9.212;2023-06-14T05:47:49;6.30;;;4.37;;
15104;SDS011;7653;48.994;9.212;2023-06-14T05:50:15;10.07;;;5.07;;
15104;SDS011;7653;48.994;9.212;2023-06-14T05:52:41;9.30;;;5.13;;
15104;SDS011;7653;48.994;9.212;2023-06-14T05:55:06;8.37;;;5.20;;
15104;SDS011;7653;48.994;9.212;2023-06-14T05:57:32;6.27;;;4.67;;
15104;SDS011;7653;48.994;9.212;2023-06-14T05:59:58;10.10;;;5.07;;
15104;SDS011;7653;48.994;9.212;2023-06-14T06:02:24;5.83;;;4.50;;
15104;SDS011;7653;48.994;9.212;2023-06-14T06:04:49;8.07;;;4.90;;
15104;SDS011;7653;48.994;9.212;2023-06-14T06:07:15;6.93;;;4.40;;
15104;SDS011;7653;48.994;9.212;2023-06-14T06:09:41;6.53;;;4.20;;
15104;SDS011;7653;48.994;9.212;2023-06-14T06:12:06;5.57;;;4.40;;
15104;SDS011;7653;48.994;9.212;2023-06-14T06:14:32;7.93;;;4.60;;
15104;SDS011;7653;48.994;9.212;2023-06-14T06:16:58;4.90;;;4.23;;
15104;SDS011;7653;48.994;9.212;2023-06-14T06:19:24;5.97;;;4.40;;
15104;SDS011;7653;48.994;9.212;2023-06-14T06:21:50;5.80;;;4.80;;
15104;SDS011;7653;48.994;9.212;2023-06-14T06:24:16;6.70;;;4.40;;
15104;SDS011;7653;48.994;9.212;2023-06-14T06:26:41;4.63;;;4.20;;
15104;SDS011;7653;48.994;9.212;2023-06-14T06:29:07;5.67;;;4.57;;
15104;SDS011;7653;48.994;9.212;2023-06-14T06:31:33;7.27;;;4.80;;
15104;SDS011;7653;48.994;9.212;2023-06-14T06:33:58;4.87;;;4.30;;
15104;SDS011;7653;48.994;9.212;2023-06-14T06:36:24;7.10;;;4.60;;
15104;SDS011;7653;48.994;9.212;2023-06-14T06:38:50;5.10;;;4.60;;
15104;SDS011;7653;48.994;9.212;2023-06-14T06:41:16;4.77;;;4.27;;
15104;SDS011;7653;48.994;9.212;2023-06-14T06:43:41;5.23;;;4.40;;
15104;SDS011;7653;48.994;9.212;2023-06-14T06:46:07;6.90;;;4.60;;
15104;SDS011;7653;48.994;9.212;2023-06-14T06:48:33;8.33;;;5.30;;
15104;SDS011;7653;48.994;9.212;2023-06-14T06:50:58;7.10;;;4.80;;
15104;SDS011;7653;48.994;9.212;2023-06-14T06:53:24;6.43;;;4.00;;
15104;SDS011;7653;48.994;9.212;2023-06-14T06:55:50;4.70;;;4.20;;
15104;SDS011;7653;48.994;9.212;2023-06-14T06:58:15;5.13;;;4.07;;
15104;SDS011;7653;48.994;9.212;2023-06-14T07:00:41;6.00;;;4.43;;
15104;SDS011;7653;48.994;9.212;2023-06-14T07:03:07;6.90;;;4.17;;
15104;SDS011;7653;48.994;9.212;2023-06-14T07:05:33;7.00;;;5.03;;
15104;SDS011;7653;48.994;9.212;2023-06-14T07:07:58;5.67;;;4.73;;
15104;SDS011;7653;48.994;9.212;2023-06-14T07:10:25;5.03;;;4.07;;
15104;SDS011;7653;48.994;9.212;2023-06-14T07:12:50;6.47;;;4.47;;
15104;SDS011;7653;48.994;9.212;2023-06-14T07:15:16;6.10;;;4.33;;
15104;SDS011;7653;48.994;9.212;2023-06-14T07:17:42;6.10;;;4.20;;
15104;SDS011;7653;48.994;9.212;2023-06-14T07:20:08;6.70;;;4.50;;
15104;SDS011;7653;48.994;9.212;2023-06-14T07:22:37;5.20;;;4.70;;
15104;SDS011;7653;48.994;9.212;2023-06-14T07:25:07;6.90;;;4.87;;
15104;SDS011;7653;48.994;9.212;2023-06-14T07:27:41;5.43;;;4.40;;
15104;SDS011;7653;48.994;9.212;2023-06-14T07:30:07;5.10;;;4.07;;
15104;SDS011;7653;48.994;9.212;2023-06-14T07:32:33;7.63;;;4.80;;
15104;SDS011;7653;48.994;9.212;2023-06-14T07:34:59;4.60;;;4.17;;
15104;SDS011;7653;48.994;9.212;2023-06-14T07:37:25;5.80;;;4.23;;
15104;SDS011;7653;48.994;9.212;2023-06-14T07:39:50;5.80;;;4.40;;
15104;SDS011;7653;48.994;9.212;2023-06-14T07:42:16;4.80;;;4.37;;
15104;SDS011;7653;48.994;9.212;2023-06-14T07:44:42;6.67;;;4.27;;
15104;SDS011;7653;48.994;9.212;2023-06-14T07:47:07;7.70;;;4.13;;
15104;SDS011;7653;48.994;9.212;2023-06-14T07:49:33;4.57;;;4.17;;
15104;SDS011;7653;48.994;9.212;2023-06-14T07:51:58;6.80;;;4.10;;
15104;SDS011;7653;48.994;9.212;2023-06-14T07:54:24;4.97;;;4.13;;
15104;SDS011;7653;48.994;9.212;2023-06-14T07:56:51;5.23;;;4.20;;
15104;SDS011;7653;48.994;9.212;2023-06-14T07:59:17;5.90;;;4.40;;
15104;SDS011;7653;48.994;9.212;2023-06-14T08:01:43;5.27;;;3.90;;
15104;SDS011;7653;48.994;9.212;2023-06-14T08:04:12;6.37;;;4.20;;
15104;SDS011;7653;48.994;9.212;2023-06-14T08:06:38;6.67;;;4.20;;
15104;SDS011;7653;48.994;9.212;2023-06-14T08:09:04;5.33;;;4.13;;
15104;SDS011;7653;48.994;9.212;2023-06-14T08:11:30;6.33;;;4.20;;
15104;SDS011;7653;48.994;9.212;2023-06-14T08:13:56;4.60;;;3.90;;
15104;SDS011;7653;48.994;9.212;2023-06-14T08:16:22;4.77;;;3.57;;
15104;SDS011;7653;48.994;9.212;2023-06-14T08:18:48;4.37;;;3.80;;
15104;SDS011;7653;48.994;9.212;2023-06-14T08:21:14;5.77;;;4.07;;
15104;SDS011;7653;48.994;9.212;2023-06-14T08:23:43;5.20;;;3.90;;
15104;SDS011;7653;48.994;9.212;2023-06-14T08:26:09;5.47;;;4.17;;
15104;SDS011;7653;48.994;9.212;2023-06-14T08:28:35;4.30;;;3.90;;
15104;SDS011;7653;48.994;9.212;2023-06-14T08:31:00;4.97;;;2.80;;
15104;SDS011;7653;48.994;9.212;2023-06-14T08:33:26;3.67;;;3.03;;
15104;SDS011;7653;48.994;9.212;2023-06-14T08:35:52;4.47;;;3.47;;
15104;SDS011;7653;48.994;9.212;2023-06-14T08:38:20;5.77;;;3.87;;
15104;SDS011;7653;48.994;9.212;2023-06-14T08:40:47;4.60;;;3.93;;
15104;SDS011;7653;48.994;9.212;2023-06-14T08:43:17;4.30;;;3.47;;
15104;SDS011;7653;48.994;9.212;2023-06-14T08:45:43;4.93;;;3.60;;
15104;SDS011;7653;48.994;9.212;2023-06-14T08:48:11;4.53;;;3.50;;
15104;SDS011;7653;48.994;9.212;2023-06-14T08:50:42;4.77;;;3.63;;
15104;SDS011;7653;48.994;9.212;2023-06-14T08:53:08;5.13;;;3.70;;
15104;SDS011;7653;48.994;9.212;2023-06-14T08:55:44;5.57;;;3.90;;
15104;SDS011;7653;48.994;9.212;2023-06-14T08:58:10;5.50;;;4.10;;
15104;SDS011;7653;48.994;9.212;2023-06-14T09:00:39;3.70;;;2.33;;
15104;SDS011;7653;48.994;9.212;2023-06-14T09:03:06;4.07;;;3.47;;
15104;SDS011;7653;48.994;9.212;2023-06-14T09:05:38;5.07;;;3.33;;
15104;SDS011;7653;48.994;9.212;2023-06-14T09:08:04;6.50;;;3.83;;
15104;SDS011;7653;48.994;9.212;2023-06-14T09:10:30;5.70;;;3.97;;
15104;SDS011;7653;48.994;9.212;2023-06-14T09:13:02;4.37;;;3.50;;
15104;SDS011;7653;48.994;9.212;2023-06-14T09:15:30;5.77;;;3.83;;
15104;SDS011;7653;48.994;9.212;2023-06-14T09:17:55;4.67;;;4.13;;
15104;SDS011;7653;48.994;9.212;2023-06-14T09:20:21;5.27;;;3.70;;
15104;SDS011;7653;48.994;9.212;2023-06-14T09:22:49;4.13;;;3.53;;
15104;SDS011;7653;48.994;9.212;2023-06-14T09:25:15;4.77;;;3.90;;
15104;SDS011;7653;48.994;9.212;2023-06-14T09:27:43;5.77;;;3.80;;
15104;SDS011;7653;48.994;9.212;2023-06-14T09:30:10;7.17;;;4.00;;
15104;SDS011;7653;48.994;9.212;2023-06-14T09:32:37;4.77;;;3.90;;
15104;SDS011;7653;48.994;9.212;2023-06-14T09:35:04;5.43;;;3.20;;
15104;SDS011;7653;48.994;9.212;2023-06-14T09:37:32;4.70;;;3.40;;
15104;SDS011;7653;48.994;9.212;2023-06-14T09:39:58;5.33;;;3.37;;
15104;SDS011;7653;48.994;9.212;2023-06-14T09:42:24;4.43;;;2.80;;
15104;SDS011;7653;48.994;9.212;2023-06-14T09:44:55;5.33;;;3.30;;
15104;SDS011;7653;48.994;9.212;2023-06-14T09:47:22;3.73;;;3.17;;
15104;SDS011;7653;48.994;9.212;2023-06-14T09:49:48;5.90;;;3.50;;
15104;SDS011;7653;48.994;9.212;2023-06-14T09:52:16;5.57;;;3.70;;
15104;SDS011;7653;48.994;9.212;2023-06-14T09:54:43;3.73;;;3.33;;
15104;SDS011;7653;48.994;9.212;2023-06-14T09:57:13;4.67;;;3.23;;
15104;SDS011;7653;48.994;9.212;2023-06-14T09:59:46;2.77;;;2.20;;
15104;SDS011;7653;48.994;9.212;2023-06-14T10:02:25;5.00;;;3.03;;
15104;SDS011;7653;48.994;9.212;2023-06-14T10:05:03;5.50;;;3.00;;
15104;SDS011;7653;48.994;9.212;2023-06-14T10:07:35;5.87;;;3.30;;
15104;SDS011;7653;48.994;9.212;2023-06-14T10:10:04;4.70;;;3.00;;
15104;SDS011;7653;48.994;9.212;2023-06-14T10:12:31;5.23;;;3.03;;
15104;SDS011;7653;48.994;9.212;2023-06-14T10:14:56;4.30;;;2.97;;
15104;SDS011;7653;48.994;9.212;2023-06-14T10:17:27;5.20;;;3.03;;
15104;SDS011;7653;48.994;9.212;2023-06-14T10:25:42;8.00;;;3.50;;
15104;SDS011;7653;48.994;9.212;2023-06-14T10:30:37;2.97;;;2.03;;
15104;SDS011;7653;48.994;9.212;2023-06-14T10:33:06;4.17;;;2.93;;
15104;SDS011;7653;48.994;9.212;2023-06-14T10:35:33;3.80;;;3.10;;
15104;SDS011;7653;48.994;9.212;2023-06-14T10:38:11;3.67;;;3.00;;
15104;SDS011;7653;48.994;9.212;2023-06-14T10:40:38;4.27;;;3.30;;
15104;SDS011;7653;48.994;9.212;2023-06-14T10:43:22;5.10;;;3.47;;
15104;SDS011;7653;48.994;9.212;2023-06-14T10:48:42;4.40;;;2.93;;
15104;SDS011;7653;48.994;9.212;2023-06-14T10:51:20;3.20;;;2.90;;
15104;SDS011;7653;48.994;9.212;2023-06-14T10:53:46;2.00;;;1.80;;
15104;SDS011;7653;48.994;9.212;2023-06-14T10:57:14;2.77;;;2.53;;
15104;SDS011;7653;48.994;9.212;2023-06-14T10:59:12;4.83;;;3.30;;
15104;SDS011;7653;48.994;9.212;2023-06-14T11:01:48;4.33;;;3.10;;
15104;SDS011;7653;48.994;9.212;2023-06-14T11:04:23;5.33;;;2.80;;
15104;SDS011;7653;48.994;9.212;2023-06-14T11:07:10;3.53;;;2.90;;
15104;SDS011;7653;48.994;9.212;2023-06-14T11:12:35;5.73;;;3.17;;
15104;SDS011;7653;48.994;9.212;2023-06-14T11:15:03;3.97;;;3.00;;
15104;SDS011;7653;48.994;9.212;2023-06-14T11:17:31;4.37;;;2.77;;
15104;SDS011;7653;48.994;9.212;2023-06-14T11:20:11;5.03;;;3.17;;
15104;SDS011;7653;48.994;9.212;2023-06-14T11:22:43;3.97;;;3.27;;
15104;SDS011;7653;48.994;9.212;2023-06-14T11:25:10;4.50;;;2.80;;
15104;SDS011;7653;48.994;9.212;2023-06-14T11:27:37;6.83;;;3.23;;
15104;SDS011;7653;48.994;9.212;2023-06-14T11:30:03;4.90;;;3.10;;
15104;SDS011;7653;48.994;9.212;2023-06-14T11:32:31;5.10;;;2.90;;
15104;SDS011;7653;48.994;9.212;2023-06-14T11:34:56;4.37;;;3.10;;
15104;SDS011;7653;48.994;9.212;2023-06-14T11:37:23;3.20;;;2.90;;
15104;SDS011;7653;48.994;9.212;2023-06-14T11:39:51;4.87;;;2.87;;
15104;SDS011;7653;48.994;9.212;2023-06-14T11:42:16;5.03;;;3.23;;
15104;SDS011;7653;48.994;9.212;2023-06-14T11:44:45;4.03;;;2.90;;
15104;SDS011;7653;48.994;9.212;2023-06-14T11:47:12;4.40;;;3.10;;
15104;SDS011;7653;48.994;9.212;2023-06-14T11:49:37;4.53;;;3.00;;
15104;SDS011;7653;48.994;9.212;2023-06-14T11:52:03;3.30;;;3.00;;
15104;SDS011;7653;48.994;9.212;2023-06-14T11:54:31;5.97;;;2.80;;
15104;SDS011;7653;48.994;9.212;2023-06-14T11:56:57;4.90;;;2.60;;
15104;SDS011;7653;48.994;9.212;2023-06-14T11:59:23;3.40;;;3.07;;
15104;SDS011;7653;48.994;9.212;2023-06-14T12:01:50;4.37;;;2.93;;
15104;SDS011;7653;48.994;9.212;2023-06-14T12:04:28;3.93;;;3.00;;
15104;SDS011;7653;48.994;9.212;2023-06-14T12:06:54;4.60;;;3.43;;
15104;SDS011;7653;48.994;9.212;2023-06-14T12:09:22;4.13;;;2.90;;
15104;SDS011;7653;48.994;9.212;2023-06-14T12:11:51;5.43;;;2.87;;
15104;SDS011;7653;48.994;9.212;2023-06-14T12:14:29;7.17;;;3.23;;
15104;SDS011;7653;48.994;9.212;2023-06-14T12:17:07;4.50;;;3.00;;
15104;SDS011;7653;48.994;9.212;2023-06-14T12:19:32;3.83;;;3.13;;
15104;SDS011;7653;48.994;9.212;2023-06-14T12:22:05;3.30;;;3.00;;
15104;SDS011;7653;48.994;9.212;2023-06-14T12:24:34;5.53;;;3.10;;
15104;SDS011;7653;48.994;9.212;2023-06-14T12:26:59;3.88;;;3.47;;
15104;SDS011;7653;48.994;9.212;2023-06-14T12:29:27;4.82;;;2.97;;
15104;SDS011;7653;48.994;9.212;2023-06-14T12:31:53;5.20;;;3.20;;
15104;SDS011;7653;48.994;9.212;2023-06-14T12:34:21;5.83;;;3.40;;
15104;SDS011;7653;48.994;9.212;2023-06-14T12:36:51;5.10;;;3.40;;
15104;SDS011;7653;48.994;9.212;2023-06-14T12:39:18;3.30;;;3.00;;
15104;SDS011;7653;48.994;9.212;2023-06-14T12:41:44;5.63;;;2.90;;
15104;SDS011;7653;48.994;9.212;2023-06-14T12:44:12;9.13;;;3.43;;
15104;SDS011;7653;48.994;9.212;2023-06-14T12:46:42;3.63;;;2.87;;
15104;SDS011;7653;48.994;9.212;2023-06-14T12:49:11;4.90;;;3.17;;
15104;SDS011;7653;48.994;9.212;2023-06-14T12:51:38;3.40;;;3.00;;
15104;SDS011;7653;48.994;9.212;2023-06-14T12:54:05;5.80;;;2.77;;
15104;SDS011;7653;48.994;9.212;2023-06-14T12:56:31;3.63;;;3.33;;
15104;SDS011;7653;48.994;9.212;2023-06-14T12:58:58;3.67;;;3.10;;
15104;SDS011;7653;48.994;9.212;2023-06-14T13:01:24;7.35;;;3.30;;
15104;SDS011;7653;48.994;9.212;2023-06-14T13:03:50;4.53;;;3.15;;
15104;SDS011;7653;48.994;9.212;2023-06-14T13:06:20;3.95;;;2.85;;
15104;SDS011;7653;48.994;9.212;2023-06-14T13:08:46;6.13;;;3.35;;
15104;SDS011;7653;48.994;9.212;2023-06-14T13:11:11;3.60;;;3.05;;
15104;SDS011;7653;48.994;9.212;2023-06-14T13:13:37;3.47;;;2.97;;
15104;SDS011;7653;48.994;9.212;2023-06-14T13:16:03;3.58;;;2.75;;
15104;SDS011;7653;48.994;9.212;2023-06-14T13:18:28;2.97;;;2.67;;
15104;SDS011;7653;48.994;9.212;2023-06-14T13:20:54;3.13;;;2.83;;
15104;SDS011;7653;48.994;9.212;2023-06-14T13:23:20;3.35;;;3.05;;
15104;SDS011;7653;48.994;9.212;2023-06-14T13:25:45;4.32;;;2.95;;
15104;SDS011;7653;48.994;9.212;2023-06-14T13:28:11;3.70;;;2.90;;
15104;SDS011;7653;48.994;9.212;2023-06-14T13:30:37;4.38;;;3.20;;
15104;SDS011;7653;48.994;9.212;2023-06-14T13:33:02;3.90;;;2.72;;
15104;SDS011;7653;48.994;9.212;2023-06-14T13:35:28;4.38;;;3.28;;
15104;SDS011;7653;48.994;9.212;2023-06-14T13:37:54;3.97;;;2.90;;
15104;SDS011;7653;48.994;9.212;2023-06-14T13:40:20;5.18;;;3.13;;
15104;SDS011;7653;48.994;9.212;2023-06-14T13:42:46;4.00;;;2.80;;
15104;SDS011;7653;48.994;9.212;2023-06-14T13:45:12;4.13;;;3.05;;
15104;SDS011;7653;48.994;9.212;2023-06-14T13:47:38;6.50;;;3.53;;
15104;SDS011;7653;48.994;9.212;2023-06-14T13:50:04;7.05;;;3.10;;
15104;SDS011;7653;48.994;9.212;2023-06-14T13:52:30;3.40;;;3.03;;
15104;SDS011;7653;48.994;9.212;2023-06-14T13:54:56;3.03;;;2.63;;
15104;SDS011;7653;48.994;9.212;2023-06-14T13:57:22;3.78;;;3.25;;
15104;SDS011;7653;48.994;9.212;2023-06-14T13:59:48;4.53;;;2.90;;
15104;SDS011;7653;48.994;9.212;2023-06-14T14:02:13;4.25;;;2.80;;
15104;SDS011;7653;48.994;9.212;2023-06-14T14:04:39;4.10;;;3.10;;
15104;SDS011;7653;48.994;9.212;2023-06-14T14:07:05;5.38;;;3.08;;
15104;SDS011;7653;48.994;9.212;2023-06-14T14:09:32;4.75;;;3.00;;
15104;SDS011;7653;48.994;9.212;2023-06-14T14:11:59;3.17;;;2.80;;
15104;SDS011;7653;48.994;9.212;2023-06-14T14:14:26;3.63;;;2.83;;
15104;SDS011;7653;48.994;9.212;2023-06-14T14:16:53;3.47;;;2.92;;
15104;SDS011;7653;48.994;9.212;2023-06-14T14:19:19;6.25;;;3.20;;
15104;SDS011;7653;48.994;9.212;2023-06-14T14:21:46;4.35;;;2.95;;
15104;SDS011;7653;48.994;9.212;2023-06-14T14:24:11;3.63;;;2.78;;
15104;SDS011;7653;48.994;9.212;2023-06-14T14:26:38;5.20;;;2.92;;
15104;SDS011;7653;48.994;9.212;2023-06-14T14:29:04;4.28;;;2.85;;
15104;SDS011;7653;48.994;9.212;2023-06-14T14:31:29;3.75;;;2.70;;
15104;SDS011;7653;48.994;9.212;2023-06-14T14:33:55;3.95;;;2.80;;
15104;SDS011;7653;48.994;9.212;2023-06-14T14:36:21;4.70;;;3.10;;
15104;SDS011;7653;48.994;9.212;2023-06-14T14:38:47;4.32;;;3.50;;
15104;SDS011;7653;48.994;9.212;2023-06-14T14:41:13;4.13;;;3.10;;
15104;SDS011;7653;48.994;9.212;2023-06-14T14:43:38;3.30;;;2.83;;
15104;SDS011;7653;48.994;9.212;2023-06-14T14:46:04;3.58;;;2.72;;
15104;SDS011;7653;48.994;9.212;2023-06-14T14:48:30;4.55;;;2.97;;
15104;SDS011;7653;48.994;9.212;2023-06-14T14:50:56;4.05;;;3.33;;
15104;SDS011;7653;48.994;9.212;2023-06-14T14:53:22;3.30;;;3.00;;
15104;SDS011;7653;48.994;9.212;2023-06-14T14:55:48;3.45;;;2.53;;
15104;SDS011;7653;48.994;9.212;2023-06-14T14:58:14;4.50;;;2.50;;
15104;SDS011;7653;48.994;9.212;2023-06-14T15:00:45;4.05;;;2.90;;
15104;SDS011;7653;48.994;9.212;2023-06-14T15:03:11;3.60;;;2.95;;
15104;SDS011;7653;48.994;9.212;2023-06-14T15:05:37;4.35;;;3.10;;
15104;SDS011;7653;48.994;9.212;2023-06-14T15:08:03;3.30;;;2.72;;
15104;SDS011;7653;48.994;9.212;2023-06-14T15:10:30;3.10;;;2.80;;
15104;SDS011;7653;48.994;9.212;2023-06-14T15:12:56;4.13;;;3.22;;
15104;SDS011;7653;48.994;9.212;2023-06-14T15:15:22;4.05;;;3.03;;
15104;SDS011;7653;48.994;9.212;2023-06-14T15:17:47;5.38;;;3.20;;
15104;SDS011;7653;48.994;9.212;2023-06-14T15:20:13;5.70;;;2.70;;
15104;SDS011;7653;48.994;9.212;2023-06-14T15:22:40;5.95;;;3.17;;